Portada
METAR-TAF:

METAR-TAF

Aeroports :

Selebi-Phikwe, Botswana

latitud: 22-03-19S, longitud: 027-49-13E, altitud: 892 m

Observació

L'informe es va fer fa 4 hores i 27 minuts, a les 18:00 UTC
Vent calma
Temperatura 23°C
Humitat 94%
Pressió 1009 hPa
Visibilitat 10 km o més
Núvols disperses a una alçada de 2500 ft
Escasses núvols a una alçada de 3000 ft, Cumulonimbus.
Núvols disperses a una alçada de 7000 ft

METAR: FBSP 181800Z 00000KT 9999 SCT025 FEW030CB SCT070 23/22 Q1009

Hora: 00:27 (22:27 UTC)

Pronòstic

L'informe es va fer fa 10 hores i 27 minuts, a les 12:00 UTC
Pronòstic vàlid del 18 a les 15 UTC al 18 a les 24 UTC
Vent 5 kt del Sud-Est
Visibilitat 10 km o més
Núvols disperses a una alçada de 2500 ft
Núvols disperses a una alçada de 7500 ft
Probabilitat 30% :
Temporalment
l' 18 a les 16 UTC al 18 a les 18 UTC
tempesta, pluja

TAF: FBSP 181200Z 1815/1824 13005KT 9999 SCT025 SCT075 PROB30 TEMPO 1816/1818 TSRA

Observacions i pronòstics meteorològics de més de 4000 aeroports (METAR i TAF).

Les estacions disponibles són els punts grocs i vermells al mapa.

Posi el ratolí al punt desitjat per veure el nom de l'estació.

Feu clic per veure les observacions i els pronòstics meteorològics.

Per canviar el mapa: feu clic els botons verds amb una creu de color negre per apropar; al botó verd amb un guió per allunyar la imatge; o en les fletxes verdes per a mapes adjacents.


METAR-TAF: